createdAt,value
2022-11-19T00:02:18.387Z,9.73
2022-11-19T00:04:47.154Z,9.97
2022-11-19T00:07:15.896Z,10.10
2022-11-19T00:09:45.973Z,9.97
2022-11-19T00:12:31.959Z,11.47
2022-11-19T00:15:01.002Z,10.07
2022-11-19T00:17:29.612Z,10.93
2022-11-19T00:19:58.347Z,10.53
2022-11-19T00:22:27.012Z,10.47
2022-11-19T00:24:57.562Z,11.33
2022-11-19T00:27:26.204Z,10.53
2022-11-19T00:29:54.827Z,9.73
2022-11-19T00:32:23.524Z,10.77
2022-11-19T00:34:52.199Z,10.47
2022-11-19T00:37:21.102Z,10.30
2022-11-19T00:39:50.264Z,9.90
2022-11-19T00:42:20.392Z,8.87
2022-11-19T00:44:48.938Z,9.53
2022-11-19T00:47:18.527Z,10.63
2022-11-19T00:49:47.516Z,11.10
2022-11-19T00:52:16.242Z,10.20
2022-11-19T00:54:44.904Z,9.40
2022-11-19T00:57:13.837Z,10.10
2022-11-19T00:59:44.766Z,10.90
2022-11-19T01:02:13.405Z,9.50
2022-11-19T01:04:42.173Z,11.00
2022-11-19T01:07:10.781Z,10.80
2022-11-19T01:09:39.397Z,11.63
2022-11-19T01:12:08.083Z,10.60
2022-11-19T01:14:36.687Z,10.27
2022-11-19T01:17:06.648Z,11.07
2022-11-19T01:19:35.270Z,12.10
2022-11-19T01:22:03.969Z,11.93
2022-11-19T01:24:32.846Z,10.87
2022-11-19T01:27:01.404Z,11.10
2022-11-19T01:29:30.815Z,10.07
2022-11-19T01:31:59.542Z,12.27
2022-11-19T01:34:30.014Z,11.20
2022-11-19T01:36:58.655Z,11.30
2022-11-19T01:39:28.281Z,10.67
2022-11-19T01:41:56.906Z,11.07
2022-11-19T01:45:02.541Z,11.13
2022-11-19T01:47:31.159Z,10.77
2022-11-19T01:50:01.294Z,10.50
2022-11-19T01:52:29.851Z,12.07
2022-11-19T01:54:58.668Z,10.77
2022-11-19T01:57:27.243Z,10.63
2022-11-19T01:59:55.924Z,11.53
2022-11-19T02:02:25.283Z,10.30
2022-11-19T02:04:57.400Z,11.77
2022-11-19T02:07:29.465Z,11.20
2022-11-19T02:09:58.947Z,11.50
2022-11-19T02:12:41.057Z,11.40
2022-11-19T02:15:36.301Z,10.70
2022-11-19T02:18:18.308Z,11.63
2022-11-19T02:21:01.512Z,11.67
2022-11-19T02:24:00.491Z,11.97
2022-11-19T02:26:57.253Z,10.90
2022-11-19T02:30:08.855Z,11.47
2022-11-19T02:32:46.437Z,12.47
2022-11-19T02:35:22.029Z,13.57
2022-11-19T02:37:59.759Z,12.57
2022-11-19T02:40:31.289Z,12.77
2022-11-19T02:43:08.988Z,12.73
2022-11-19T02:45:42.901Z,12.37
2022-11-19T02:48:17.204Z,13.23
2022-11-19T02:50:50.355Z,12.60
2022-11-19T02:53:18.913Z,14.20
2022-11-19T02:56:08.741Z,13.00
2022-11-19T02:58:59.134Z,12.80
2022-11-19T03:01:48.480Z,13.97
2022-11-19T03:04:30.994Z,14.23
2022-11-19T03:07:04.429Z,14.57
2022-11-19T03:09:35.554Z,13.93
2022-11-19T03:12:12.452Z,13.33
2022-11-19T03:15:08.371Z,13.53
2022-11-19T03:17:51.170Z,16.00
2022-11-19T03:20:25.074Z,14.40
2022-11-19T03:22:59.179Z,15.60
2022-11-19T03:25:33.123Z,16.10
2022-11-19T03:28:05.902Z,15.30
2022-11-19T03:30:34.693Z,15.90
2022-11-19T03:33:08.170Z,14.50
2022-11-19T03:35:41.247Z,15.77
2022-11-19T03:38:14.507Z,14.80
2022-11-19T03:40:45.684Z,15.37
2022-11-19T03:43:19.595Z,14.57
2022-11-19T03:45:50.252Z,14.37
2022-11-19T03:48:23.315Z,14.43
2022-11-19T03:50:57.954Z,14.70
2022-11-19T03:53:27.247Z,14.93
2022-11-19T03:55:59.491Z,15.17
2022-11-19T03:58:29.685Z,14.77
2022-11-19T04:00:58.298Z,16.60
2022-11-19T04:03:28.292Z,14.53
2022-11-19T04:05:56.883Z,15.60
2022-11-19T04:08:25.427Z,14.33
2022-11-19T04:10:54.351Z,12.43
2022-11-19T04:13:22.964Z,13.87
2022-11-19T04:15:53.297Z,13.83
2022-11-19T04:18:22.128Z,14.20
2022-11-19T04:20:52.142Z,13.47
2022-11-19T04:23:20.973Z,13.43
2022-11-19T04:25:49.459Z,14.73
2022-11-19T04:28:18.277Z,14.00
2022-11-19T04:30:46.991Z,14.10
2022-11-19T04:33:15.834Z,13.97
2022-11-19T04:35:45.897Z,14.93
2022-11-19T04:38:16.429Z,15.17
2022-11-19T04:40:44.996Z,14.77
2022-11-19T04:43:13.608Z,15.40
2022-11-19T04:45:42.316Z,15.93
2022-11-19T04:48:10.904Z,13.50
2022-11-19T04:50:39.745Z,14.17
2022-11-19T04:53:08.982Z,14.40
2022-11-19T04:55:39.100Z,13.03
2022-11-19T04:58:07.655Z,13.80
2022-11-19T05:00:36.324Z,12.70
2022-11-19T05:03:05.793Z,13.13
2022-11-19T05:05:34.364Z,13.17
2022-11-19T05:08:03.010Z,12.67
2022-11-19T05:10:31.649Z,13.30
2022-11-19T05:13:01.805Z,14.90
2022-11-19T05:15:30.320Z,12.13
2022-11-19T05:17:58.942Z,14.30
2022-11-19T05:20:27.690Z,14.03
2022-11-19T05:22:56.292Z,13.80
2022-11-19T05:25:24.861Z,14.37
2022-11-19T05:27:53.530Z,12.60
2022-11-19T05:30:24.100Z,13.77
2022-11-19T05:32:52.659Z,14.33
2022-11-19T05:35:21.166Z,14.00
2022-11-19T05:37:50.727Z,13.40
2022-11-19T05:40:20.226Z,15.57
2022-11-19T05:42:48.854Z,14.10
2022-11-19T05:45:17.700Z,13.90
2022-11-19T05:47:48.920Z,13.50
2022-11-19T05:50:17.756Z,14.57
2022-11-19T05:52:46.782Z,13.73
2022-11-19T05:55:17.175Z,16.23
2022-11-19T05:57:45.792Z,13.63
2022-11-19T06:00:16.319Z,13.60
2022-11-19T06:02:45.194Z,13.87
2022-11-19T06:05:15.659Z,14.77
2022-11-19T06:07:44.288Z,12.00
2022-11-19T06:10:13.298Z,13.30
2022-11-19T06:12:45.791Z,13.40
2022-11-19T06:15:18.542Z,13.47
2022-11-19T06:17:47.929Z,13.37
2022-11-19T06:20:18.443Z,13.17
2022-11-19T06:22:47.259Z,13.20
2022-11-19T06:25:16.498Z,12.77
2022-11-19T06:27:45.165Z,13.83
2022-11-19T06:30:15.915Z,13.00
2022-11-19T06:32:45.096Z,13.03
2022-11-19T06:35:14.460Z,14.30
2022-11-19T06:37:44.514Z,12.90
2022-11-19T06:40:14.970Z,12.10
2022-11-19T06:42:46.092Z,12.57
2022-11-19T06:45:17.015Z,12.80
2022-11-19T06:47:49.614Z,13.07
2022-11-19T06:50:18.345Z,13.00
2022-11-19T06:52:48.273Z,12.10
2022-11-19T06:55:17.060Z,12.20
2022-11-19T06:57:45.694Z,13.00
2022-11-19T07:00:15.601Z,12.93
2022-11-19T07:02:44.066Z,12.40
2022-11-19T07:05:12.843Z,12.17
2022-11-19T07:07:41.692Z,13.13
2022-11-19T07:10:12.073Z,11.90
2022-11-19T07:12:40.886Z,12.30
2022-11-19T07:15:10.501Z,13.70
2022-11-19T07:17:44.393Z,12.37
2022-11-19T07:20:13.835Z,13.67
2022-11-19T07:22:42.839Z,12.23
2022-11-19T07:25:13.779Z,11.13
2022-11-19T07:27:46.677Z,13.10
2022-11-19T07:30:16.838Z,11.77
2022-11-19T07:32:45.831Z,12.33
2022-11-19T07:35:14.496Z,12.70
2022-11-19T07:37:43.080Z,12.33
2022-11-19T07:40:16.757Z,14.17
2022-11-19T07:42:50.279Z,11.97
2022-11-19T07:45:20.270Z,12.27
2022-11-19T07:47:49.666Z,13.47
2022-11-19T07:50:18.895Z,11.87
2022-11-19T07:52:47.544Z,11.70
2022-11-19T07:55:17.749Z,12.33
2022-11-19T07:57:46.415Z,12.73
2022-11-19T08:00:16.358Z,12.27
2022-11-19T08:02:45.147Z,11.90
2022-11-19T08:05:13.787Z,12.63
2022-11-19T08:07:43.316Z,12.63
2022-11-19T08:10:12.776Z,11.73
2022-11-19T08:13:02.818Z,12.70
2022-11-19T08:15:31.881Z,11.57
2022-11-19T08:18:16.132Z,11.27
2022-11-19T08:20:48.457Z,12.23
2022-11-19T08:23:17.459Z,12.13
2022-11-19T08:25:46.833Z,11.70
2022-11-19T08:28:17.262Z,13.43
2022-11-19T08:30:46.792Z,12.07
2022-11-19T08:33:15.553Z,13.57
2022-11-19T08:35:44.172Z,12.37
2022-11-19T08:38:12.975Z,12.87
2022-11-19T08:40:41.558Z,12.80
2022-11-19T08:43:09.216Z,10.33
2022-11-19T08:45:40.593Z,12.53
2022-11-19T08:48:10.453Z,13.17
2022-11-19T08:50:39.342Z,11.60
2022-11-19T08:53:08.046Z,12.83
2022-11-19T08:55:36.942Z,12.20
2022-11-19T08:58:08.256Z,12.27
2022-11-19T09:00:39.398Z,12.37
2022-11-19T09:03:08.061Z,11.60
2022-11-19T09:05:36.845Z,11.13
2022-11-19T09:08:05.511Z,11.63
2022-11-19T09:10:34.314Z,11.57
2022-11-19T09:13:03.244Z,10.57
2022-11-19T09:15:32.514Z,9.90
2022-11-19T09:18:02.634Z,11.17
2022-11-19T09:20:31.281Z,10.67
2022-11-19T09:23:00.258Z,11.00
2022-11-19T09:25:29.253Z,11.40
2022-11-19T09:27:57.969Z,10.37
2022-11-19T09:30:26.836Z,10.77
2022-11-19T09:32:55.444Z,10.13
2022-11-19T09:35:25.655Z,9.63
2022-11-19T09:37:55.485Z,9.63
2022-11-19T09:40:24.412Z,10.00
2022-11-19T09:43:04.780Z,10.07
2022-11-19T09:45:45.592Z,9.63
2022-11-19T09:48:25.843Z,9.97
2022-11-19T09:51:00.660Z,9.00
2022-11-19T09:53:34.392Z,8.83
2022-11-19T09:56:03.671Z,9.83
2022-11-19T09:58:36.950Z,10.13
2022-11-19T10:01:06.463Z,9.73
2022-11-19T10:03:35.359Z,9.47
2022-11-19T10:06:24.276Z,9.23
2022-11-19T10:09:09.254Z,9.00
2022-11-19T10:11:47.951Z,8.00
2022-11-19T10:14:35.501Z,8.57
2022-11-19T10:17:14.109Z,9.00
2022-11-19T10:19:55.150Z,9.10
2022-11-19T10:22:31.399Z,8.90
2022-11-19T10:25:06.305Z,9.00
2022-11-19T10:27:41.257Z,8.83
2022-11-19T10:30:16.263Z,8.97
2022-11-19T10:32:54.504Z,8.37
2022-11-19T10:35:26.838Z,8.07
2022-11-19T10:37:59.676Z,7.13
2022-11-19T10:40:34.383Z,10.40
2022-11-19T10:43:19.477Z,10.38
2022-11-19T10:45:54.640Z,7.97
2022-11-19T10:48:25.199Z,7.83
2022-11-19T10:50:55.918Z,8.80
2022-11-19T10:53:29.814Z,8.50
2022-11-19T10:56:01.494Z,9.95
2022-11-19T10:58:33.563Z,8.60
2022-11-19T11:01:05.476Z,7.60
2022-11-19T11:03:40.430Z,7.93
2022-11-19T11:06:10.286Z,8.00
2022-11-19T11:08:50.072Z,8.00
2022-11-19T11:11:49.067Z,7.90
2022-11-19T11:14:37.168Z,7.73
2022-11-19T11:17:06.690Z,8.67
2022-11-19T11:19:36.610Z,8.20
2022-11-19T11:22:05.395Z,7.93
2022-11-19T11:24:39.340Z,7.60
2022-11-19T11:27:20.954Z,7.47
2022-11-19T11:29:49.806Z,8.93
2022-11-19T11:32:28.998Z,8.73
2022-11-19T11:35:00.278Z,6.93
2022-11-19T11:37:32.709Z,7.27
2022-11-19T11:40:05.175Z,7.33
2022-11-19T11:42:34.175Z,7.17
2022-11-19T11:45:03.750Z,7.77
2022-11-19T11:47:37.705Z,7.60
2022-11-19T11:50:09.671Z,7.50
2022-11-19T11:52:42.406Z,7.17
2022-11-19T11:55:18.074Z,7.37
2022-11-19T11:57:55.896Z,7.10
2022-11-19T12:00:37.703Z,6.57
2022-11-19T12:03:08.505Z,7.13
2022-11-19T12:05:50.068Z,6.70
2022-11-19T12:08:42.495Z,6.73
2022-11-19T12:11:21.670Z,7.70
2022-11-19T12:13:56.631Z,6.10
2022-11-19T12:16:42.385Z,7.10
2022-11-19T12:19:34.412Z,6.07
2022-11-19T12:22:09.194Z,6.73
2022-11-19T12:25:00.168Z,6.20
2022-11-19T12:27:38.218Z,6.63
2022-11-19T12:30:20.532Z,5.90
2022-11-19T12:33:15.048Z,5.93
2022-11-19T12:35:54.129Z,5.57
2022-11-19T12:38:36.335Z,5.67
2022-11-19T12:41:22.050Z,5.33
2022-11-19T12:43:58.887Z,5.97
2022-11-19T12:46:43.008Z,5.13
2022-11-19T12:49:46.743Z,4.77
2022-11-19T12:52:46.197Z,5.23
2022-11-19T12:55:24.769Z,4.97
2022-11-19T12:58:02.271Z,4.47
2022-11-19T13:00:38.113Z,4.93
2022-11-19T13:03:15.324Z,4.90
2022-11-19T13:05:48.835Z,4.40
2022-11-19T13:08:22.555Z,5.83
2022-11-19T13:10:58.172Z,5.10
2022-11-19T13:13:30.502Z,4.87
2022-11-19T13:16:04.764Z,4.23
2022-11-19T13:18:36.009Z,3.90
2022-11-19T13:21:08.180Z,4.40
2022-11-19T13:23:41.704Z,4.53
2022-11-19T13:26:14.727Z,4.07
2022-11-19T13:28:46.824Z,4.50
2022-11-19T13:31:30.354Z,4.50
2022-11-19T13:34:03.571Z,4.10
2022-11-19T13:36:36.697Z,4.90
2022-11-19T13:39:15.552Z,3.83
2022-11-19T13:42:03.623Z,4.03
2022-11-19T13:44:42.282Z,4.07
2022-11-19T13:47:19.136Z,3.67
2022-11-19T13:49:53.506Z,3.60
2022-11-19T13:52:28.683Z,3.60
2022-11-19T13:54:58.885Z,3.40
2022-11-19T13:57:31.351Z,3.93
2022-11-19T14:00:03.559Z,3.07
2022-11-19T14:03:28.201Z,3.83
2022-11-19T14:06:17.176Z,4.10
2022-11-19T14:08:59.063Z,3.80
2022-11-19T14:11:54.336Z,3.80
2022-11-19T14:14:56.076Z,3.63
2022-11-19T14:17:53.249Z,3.37
2022-11-19T14:21:03.054Z,3.13
2022-11-19T14:24:03.986Z,4.32
2022-11-19T14:27:02.616Z,3.13
2022-11-19T14:29:54.632Z,3.80
2022-11-19T14:32:32.532Z,3.53
2022-11-19T14:35:32.899Z,3.97
2022-11-19T14:38:38.653Z,3.70
2022-11-19T14:41:32.938Z,3.50
2022-11-19T14:44:10.026Z,3.57
2022-11-19T14:46:49.914Z,3.97
2022-11-19T14:49:38.071Z,4.07
2022-11-19T14:52:21.377Z,3.40
2022-11-19T14:54:58.116Z,3.93
2022-11-19T14:57:30.243Z,3.97
2022-11-19T15:00:02.643Z,3.80
2022-11-19T15:02:36.390Z,3.80
2022-11-19T15:05:15.832Z,3.20
2022-11-19T15:07:52.736Z,3.20
2022-11-19T15:10:34.699Z,3.53
2022-11-19T15:13:19.042Z,3.60
2022-11-19T15:15:51.821Z,3.50
2022-11-19T15:18:56.422Z,3.70
2022-11-19T15:21:48.399Z,3.97
2022-11-19T15:24:29.558Z,5.50
2022-11-19T15:27:12.003Z,4.63
2022-11-19T15:30:02.254Z,3.33
2022-11-19T15:32:45.053Z,3.70
2022-11-19T15:35:32.822Z,2.73
2022-11-19T15:38:09.896Z,3.73
2022-11-19T15:40:38.871Z,3.40
2022-11-19T15:43:15.139Z,3.40
2022-11-19T15:45:49.014Z,4.30
2022-11-19T15:48:21.823Z,3.87
2022-11-19T15:50:50.897Z,4.17
2022-11-19T15:53:21.279Z,3.60
2022-11-19T15:55:55.553Z,4.37
2022-11-19T15:58:28.853Z,3.87
2022-11-19T16:00:57.629Z,4.47
2022-11-19T16:03:26.230Z,4.60
2022-11-19T16:06:03.663Z,4.80
2022-11-19T16:08:33.243Z,5.27
2022-11-19T16:11:20.956Z,6.07
2022-11-19T16:14:24.106Z,6.97
2022-11-19T16:21:02.380Z,9.30
2022-11-19T16:24:05.518Z,6.07
2022-11-19T16:26:39.250Z,5.37
2022-11-19T16:30:54.284Z,5.07
2022-11-19T16:47:59.865Z,15.10
2022-11-19T16:50:43.895Z,17.52
2022-11-19T17:34:12.432Z,6.25
2022-11-19T17:36:42.515Z,6.50
2022-11-19T17:39:12.548Z,6.97
2022-11-19T17:41:59.898Z,7.00
2022-11-19T17:44:35.797Z,7.57
2022-11-19T17:47:13.550Z,11.07
2022-11-19T17:49:51.410Z,7.30
2022-11-19T17:52:24.591Z,8.03
2022-11-19T17:54:54.975Z,6.03
2022-11-19T17:57:23.742Z,7.53
2022-11-19T17:59:52.498Z,5.90
2022-11-19T18:02:22.200Z,6.53
2022-11-19T18:04:52.983Z,5.87
2022-11-19T18:07:21.795Z,5.23
2022-11-19T18:09:51.383Z,6.07
2022-11-19T18:12:24.294Z,6.20
2022-11-19T18:14:55.707Z,6.03
2022-11-19T18:17:26.615Z,5.90
2022-11-19T18:19:56.875Z,5.03
2022-11-19T18:22:25.587Z,5.57
2022-11-19T18:24:54.324Z,4.90
2022-11-19T18:27:22.936Z,7.60
2022-11-19T18:29:51.809Z,5.87
2022-11-19T18:32:20.681Z,5.97
2022-11-19T18:34:49.335Z,5.63
2022-11-19T18:37:19.518Z,5.27
2022-11-19T18:39:48.327Z,6.10
2022-11-19T18:42:17.198Z,7.80
2022-11-19T18:44:44.809Z,6.23
2022-11-19T18:47:15.852Z,6.20
2022-11-19T18:49:44.599Z,9.50
2022-11-19T18:52:15.684Z,6.93
2022-11-19T18:54:45.897Z,5.70
2022-11-19T18:57:16.431Z,5.20
2022-11-19T18:59:45.206Z,6.20
2022-11-19T19:02:13.829Z,6.10
2022-11-19T19:04:42.976Z,5.93
2022-11-19T19:07:13.361Z,5.63
2022-11-19T19:09:42.163Z,5.27
2022-11-19T19:12:21.408Z,9.17
2022-11-19T19:14:51.936Z,6.27
2022-11-19T19:17:20.726Z,8.07
2022-11-19T19:19:49.779Z,9.60
2022-11-19T19:22:18.564Z,5.83
2022-11-19T19:24:47.387Z,6.00
2022-11-19T19:27:17.810Z,5.13
2022-11-19T19:29:46.361Z,4.90
2022-11-19T19:32:15.388Z,5.60
2022-11-19T19:34:44.151Z,5.50
2022-11-19T19:37:27.547Z,5.93
2022-11-19T19:39:56.065Z,5.60
2022-11-19T19:42:24.506Z,6.63
2022-11-19T19:44:52.954Z,6.73
2022-11-19T19:47:21.519Z,6.37
2022-11-19T19:49:49.928Z,6.43
2022-11-19T19:52:18.270Z,6.00
2022-11-19T19:54:48.024Z,6.83
2022-11-19T19:57:16.646Z,7.13
2022-11-19T19:59:45.178Z,5.87
2022-11-19T20:02:13.584Z,6.17
2022-11-19T20:04:42.042Z,6.33
2022-11-19T20:07:10.581Z,5.47
2022-11-19T20:09:39.228Z,5.67
2022-11-19T20:12:09.247Z,6.20
2022-11-19T20:14:37.765Z,7.03
2022-11-19T20:17:06.162Z,6.77
2022-11-19T20:19:34.576Z,6.23
2022-11-19T20:22:03.015Z,6.03
2022-11-19T20:24:31.457Z,6.03
2022-11-19T20:26:59.890Z,6.93
2022-11-19T20:29:29.692Z,6.40
2022-11-19T20:31:58.170Z,6.60
2022-11-19T20:34:26.682Z,6.77
2022-11-19T20:36:55.060Z,7.10
2022-11-19T20:39:23.811Z,6.47
2022-11-19T20:42:09.725Z,6.70
2022-11-19T20:44:39.514Z,6.20
2022-11-19T20:47:08.002Z,6.23
2022-11-19T20:49:38.094Z,6.00
2022-11-19T20:52:07.448Z,6.30
2022-11-19T20:54:35.917Z,5.50
2022-11-19T20:57:04.392Z,7.63
2022-11-19T20:59:32.838Z,8.43
2022-11-19T21:02:02.760Z,6.63
2022-11-19T21:04:36.259Z,10.03
2022-11-19T21:07:05.334Z,8.03
2022-11-19T21:09:34.099Z,7.97
2022-11-19T21:12:02.529Z,9.20
2022-11-19T21:14:30.936Z,11.17
2022-11-19T21:16:59.422Z,8.87
2022-11-19T21:19:29.256Z,9.23
2022-11-19T21:21:58.162Z,8.83
2022-11-19T21:24:26.591Z,9.50
2022-11-19T21:26:54.995Z,7.50
2022-11-19T21:29:23.747Z,7.83
2022-11-19T21:31:52.572Z,9.17
2022-11-19T21:34:21.443Z,8.03
2022-11-19T21:36:51.610Z,8.43
2022-11-19T21:39:21.376Z,8.70
2022-11-19T21:41:50.447Z,7.63
2022-11-19T21:44:21.792Z,8.37
2022-11-19T21:46:50.644Z,8.00
2022-11-19T21:49:19.503Z,7.07
2022-11-19T21:51:48.988Z,7.27
2022-11-19T21:54:18.789Z,6.57
2022-11-19T21:56:47.380Z,6.33
2022-11-19T21:59:16.377Z,7.10
2022-11-19T22:01:44.826Z,7.00
2022-11-19T22:04:15.389Z,7.83
2022-11-19T22:06:44.496Z,9.23
2022-11-19T22:09:12.914Z,10.87
2022-11-19T22:11:43.066Z,7.00
2022-11-19T22:14:11.644Z,6.57
2022-11-19T22:16:41.356Z,8.00
2022-11-19T22:19:12.229Z,8.23
2022-11-19T22:21:41.148Z,9.17
2022-11-19T22:24:09.717Z,8.60
2022-11-19T22:26:38.163Z,8.70
2022-11-19T22:29:07.975Z,6.90
2022-11-19T22:31:36.403Z,8.17
2022-11-19T22:34:04.863Z,7.13
2022-11-19T22:36:34.103Z,7.03
2022-11-19T22:39:02.696Z,7.90
2022-11-19T22:41:31.133Z,7.53
2022-11-19T22:43:59.763Z,7.00
2022-11-19T22:46:29.574Z,6.87
2022-11-19T22:48:58.156Z,7.30
2022-11-19T22:51:27.250Z,7.00
2022-11-19T22:53:56.267Z,7.33
2022-11-19T22:56:26.290Z,7.20
2022-11-19T22:58:55.629Z,7.17
2022-11-19T23:01:25.890Z,7.43
2022-11-19T23:03:57.589Z,7.37
2022-11-19T23:06:26.389Z,6.83
2022-11-19T23:08:55.422Z,6.87
2022-11-19T23:11:38.649Z,7.93
2022-11-19T23:14:08.634Z,10.97
2022-11-19T23:16:37.664Z,9.07
2022-11-19T23:19:08.932Z,9.87
2022-11-19T23:21:37.759Z,7.87
2022-11-19T23:24:06.912Z,8.13
2022-11-19T23:26:35.723Z,7.63
2022-11-19T23:29:04.944Z,7.90
2022-11-19T23:31:35.509Z,8.10
2022-11-19T23:34:04.110Z,9.50
2022-11-19T23:36:35.746Z,10.17
2022-11-19T23:39:05.283Z,10.50
2022-11-19T23:41:35.051Z,8.27
2022-11-19T23:44:03.761Z,8.50
2022-11-19T23:46:33.593Z,7.77
2022-11-19T23:49:02.746Z,7.43
2022-11-19T23:51:34.783Z,6.83
2022-11-19T23:54:03.760Z,7.03
2022-11-19T23:56:34.464Z,7.87
2022-11-19T23:59:04.217Z,7.07
